Anchor Bay, California
Current Conditions -  °F | °C
As of 4:56 PM on Wednesday 22 Oct 2014 (Local Time) from KUKI Reporting Station
Scattered Clouds Scattered Clouds  
Wind Chill: 71°   Ceiling: Unl
Heat Index: 71°   Visibility: 10mi
Dew Point: 51°   Wind: 6mph
Humidity: 49%   Direction: 260°W
Pressure: 30.02"   Gusts: NA
Location:  38.8361°N, 123.43°W
Report Text: KUKI 222356Z AUTO 26005KT 10SM SCT045 22/11 A3002 RMK AO2 SLP162 T02170106 10222 20161 55005
Loading
Personal Weather Stations






























Interactive Weather Map New forecast layout! Learn more

10-Day Weather Forecast

Advertisements
Track Severe Weather on mobile